createdAt,value
2019-04-04T00:00:30.055Z,84.75
2019-04-04T00:02:57.067Z,84.76
2019-04-04T00:05:26.151Z,84.79
2019-04-04T00:07:53.693Z,84.62
2019-04-04T00:10:21.035Z,84.60
2019-04-04T00:12:48.064Z,84.54
2019-04-04T00:15:15.529Z,84.35
2019-04-04T00:17:42.538Z,84.50
2019-04-04T00:20:09.586Z,84.55
2019-04-04T00:22:36.888Z,84.69
2019-04-04T00:25:04.237Z,84.90
2019-04-04T00:27:32.345Z,84.91
2019-04-04T00:29:59.395Z,84.91
2019-04-04T00:32:26.713Z,84.93
2019-04-04T00:34:53.767Z,84.87
2019-04-04T00:37:20.886Z,84.76
2019-04-04T00:39:48.201Z,84.73
2019-04-04T00:42:17.011Z,84.65
2019-04-04T00:44:44.255Z,84.56
2019-04-04T00:47:11.301Z,84.61
2019-04-04T00:49:38.604Z,84.79
2019-04-04T00:52:05.961Z,84.84
2019-04-04T00:54:33.260Z,85.00
2019-04-04T00:57:00.590Z,84.90
2019-04-04T00:59:28.950Z,84.98
2019-04-04T01:01:57.081Z,84.94
2019-04-04T01:04:24.961Z,84.85
2019-04-04T01:06:52.405Z,84.94
2019-04-04T01:09:19.668Z,84.78
2019-04-04T01:11:46.716Z,84.83
2019-04-04T01:14:14.107Z,84.92
2019-04-04T01:16:41.463Z,84.94
2019-04-04T01:19:09.989Z,85.03
2019-04-04T01:21:37.811Z,85.27
2019-04-04T01:24:04.845Z,85.52
2019-04-04T01:26:33.147Z,85.77
2019-04-04T01:29:01.232Z,86.13
2019-04-04T01:31:28.283Z,86.37
2019-04-04T01:33:55.610Z,86.50
2019-04-04T01:36:25.167Z,86.42
2019-04-04T01:38:51.898Z,86.27
2019-04-04T01:41:19.028Z,86.42
2019-04-04T01:43:46.379Z,86.81
2019-04-04T01:46:15.352Z,86.70
2019-04-04T01:48:43.223Z,86.76
2019-04-04T01:51:10.284Z,86.95
2019-04-04T01:53:37.625Z,86.98
2019-04-04T01:56:06.734Z,86.86
2019-04-04T01:58:33.407Z,86.91
2019-04-04T02:01:00.453Z,87.12
2019-04-04T02:03:27.488Z,87.23
2019-04-04T02:05:56.199Z,87.45
2019-04-04T02:08:23.605Z,87.50
2019-04-04T02:10:50.641Z,87.69
2019-04-04T02:13:17.692Z,87.79
2019-04-04T02:15:45.354Z,87.64
2019-04-04T02:18:12.711Z,87.93
2019-04-04T02:20:39.754Z,87.99
2019-04-04T02:23:07.117Z,88.00
2019-04-04T02:25:34.858Z,87.92
2019-04-04T02:28:01.886Z,87.91
2019-04-04T02:30:28.928Z,87.96
2019-04-04T02:32:59.418Z,87.42
2019-04-04T02:35:24.728Z,87.74
2019-04-04T02:37:54.889Z,88.15
2019-04-04T02:40:20.525Z,88.12
2019-04-04T02:42:47.918Z,88.29
2019-04-04T02:45:15.289Z,88.25
2019-04-04T02:47:42.628Z,88.19
2019-04-04T02:50:09.665Z,87.85
2019-04-04T02:52:37.788Z,88.09
2019-04-04T02:55:05.091Z,87.98
2019-04-04T02:57:32.151Z,87.84
2019-04-04T02:59:59.489Z,87.59
2019-04-04T03:02:26.871Z,87.66
2019-04-04T03:04:54.215Z,87.35
2019-04-04T03:07:21.552Z,87.56
2019-04-04T03:09:48.591Z,87.54
2019-04-04T03:12:15.647Z,87.03
2019-04-04T03:14:42.924Z,86.95
2019-04-04T03:17:10.333Z,86.91
2019-04-04T03:19:37.366Z,86.20
2019-04-04T03:22:04.430Z,86.41
2019-04-04T03:24:31.493Z,86.38
2019-04-04T03:26:58.509Z,85.85
2019-04-04T03:29:25.565Z,86.31
2019-04-04T03:31:52.598Z,86.53
2019-04-04T03:34:19.664Z,86.53
2019-04-04T03:36:46.695Z,86.30
2019-04-04T03:39:13.868Z,86.11
2019-04-04T03:41:41.029Z,86.06
2019-04-04T03:44:08.404Z,86.52
2019-04-04T03:46:38.765Z,86.62
2019-04-04T03:49:04.500Z,86.69
2019-04-04T03:51:31.810Z,86.68
2019-04-04T03:53:59.154Z,86.46
2019-04-04T03:56:26.209Z,86.29
2019-04-04T03:58:53.254Z,86.30
2019-04-04T04:01:20.292Z,86.18
2019-04-04T04:03:47.353Z,86.35
2019-04-04T04:06:14.725Z,86.75
2019-04-04T04:08:42.053Z,86.99
2019-04-04T04:11:09.091Z,87.24
2019-04-04T04:13:37.116Z,87.66
2019-04-04T04:16:04.424Z,87.86
2019-04-04T04:18:31.810Z,87.67
2019-04-04T04:20:58.847Z,87.59
2019-04-04T04:23:25.897Z,87.77
2019-04-04T04:25:53.249Z,88.30
2019-04-04T04:28:20.947Z,88.51
2019-04-04T04:30:48.291Z,88.85
2019-04-04T04:33:15.342Z,89.24
2019-04-04T04:35:42.643Z,89.61
2019-04-04T04:38:10.018Z,89.40
2019-04-04T04:40:37.075Z,89.37
2019-04-04T04:43:04.358Z,89.46
2019-04-04T04:45:31.398Z,89.62
2019-04-04T04:47:58.453Z,89.42
2019-04-04T04:50:25.758Z,89.47
2019-04-04T04:52:52.812Z,89.10
2019-04-04T04:55:19.852Z,89.33
2019-04-04T04:57:46.891Z,89.69
2019-04-04T05:00:16.110Z,89.75
2019-04-04T05:02:44.271Z,89.86
2019-04-04T05:05:11.628Z,89.95
2019-04-04T05:07:39.130Z,90.06
2019-04-04T05:10:06.202Z,89.28
2019-04-04T05:12:33.238Z,89.16
2019-04-04T05:15:01.364Z,89.36
2019-04-04T05:17:30.301Z,89.44
2019-04-04T05:19:57.702Z,89.38
2019-04-04T05:22:24.746Z,89.24
2019-04-04T05:25:07.020Z,89.03
2019-04-04T05:27:20.776Z,88.12
2019-04-04T05:29:48.150Z,88.42
2019-04-04T05:32:15.188Z,88.43
2019-04-04T05:34:42.255Z,88.25
2019-04-04T05:37:09.296Z,88.03
2019-04-04T05:39:36.350Z,87.82
2019-04-04T05:42:03.390Z,87.93
2019-04-04T05:44:30.443Z,87.62
2019-04-04T05:46:57.811Z,87.54
2019-04-04T05:49:25.149Z,87.29
2019-04-04T05:51:52.191Z,86.95
2019-04-04T05:54:19.243Z,86.90
2019-04-04T05:56:48.787Z,86.64
2019-04-04T05:59:15.364Z,86.50
2019-04-04T06:01:42.844Z,86.32
2019-04-04T06:04:10.049Z,85.91
2019-04-04T06:06:37.105Z,85.83
2019-04-04T06:09:04.512Z,85.69
2019-04-04T06:11:31.546Z,85.59
2019-04-04T06:13:59.046Z,85.54
2019-04-04T06:16:27.939Z,85.54
2019-04-04T06:18:55.252Z,85.57
2019-04-04T06:21:22.302Z,85.68
2019-04-04T06:23:49.338Z,85.71
2019-04-04T06:26:16.732Z,85.69
2019-04-04T06:28:45.016Z,85.50
2019-04-04T06:31:13.358Z,85.31
2019-04-04T06:33:40.403Z,85.40
2019-04-04T06:36:07.757Z,85.34
2019-04-04T06:38:35.862Z,85.05
2019-04-04T06:41:02.924Z,85.22
2019-04-04T06:43:29.952Z,85.30
2019-04-04T06:45:57.006Z,85.30
2019-04-04T06:48:24.330Z,85.16
2019-04-04T06:50:51.686Z,84.89
2019-04-04T06:53:20.370Z,85.12
2019-04-04T06:55:48.135Z,85.25
2019-04-04T06:58:17.073Z,85.26
2019-04-04T07:00:48.589Z,85.41
2019-04-04T07:03:14.810Z,85.63
2019-04-04T07:05:41.868Z,85.56
2019-04-04T07:08:08.949Z,85.63
2019-04-04T07:10:35.964Z,85.34
2019-04-04T07:13:14.881Z,85.81
2019-04-04T07:15:31.755Z,86.03
2019-04-04T07:17:58.824Z,86.21
2019-04-04T07:20:28.337Z,86.52
2019-04-04T07:22:55.860Z,86.69
2019-04-04T07:25:23.366Z,86.30
2019-04-04T07:27:50.396Z,86.40
2019-04-04T07:30:17.766Z,86.56
2019-04-04T07:32:44.799Z,86.81
2019-04-04T07:35:12.082Z,86.87
2019-04-04T07:37:39.195Z,86.99
2019-04-04T07:40:06.178Z,86.97
2019-04-04T07:42:33.229Z,86.49
2019-04-04T07:45:00.562Z,86.67
2019-04-04T07:47:27.922Z,87.12
2019-04-04T07:49:55.480Z,86.85
2019-04-04T07:52:22.854Z,87.11
2019-04-04T07:54:50.189Z,86.98
2019-04-04T07:57:19.778Z,87.13
2019-04-04T07:59:46.349Z,87.19
2019-04-04T08:02:13.406Z,87.17
2019-04-04T08:04:40.449Z,87.13
2019-04-04T08:07:07.502Z,87.09
2019-04-04T08:09:34.540Z,87.08
2019-04-04T08:12:01.594Z,87.06
2019-04-04T08:14:28.636Z,87.44
2019-04-04T08:16:55.690Z,87.51
2019-04-04T08:19:22.731Z,87.30
2019-04-04T08:21:49.787Z,87.40
2019-04-04T08:24:17.124Z,87.50
2019-04-04T08:26:44.178Z,87.18
2019-04-04T08:29:18.560Z,86.86
2019-04-04T08:31:45.616Z,86.95
2019-04-04T08:34:12.656Z,86.86
2019-04-04T08:36:39.712Z,86.90
2019-04-04T08:39:06.755Z,86.73
2019-04-04T08:41:33.808Z,86.73
2019-04-04T08:44:01.182Z,86.77
2019-04-04T08:46:28.235Z,86.40
2019-04-04T08:48:55.276Z,86.37
2019-04-04T08:51:22.322Z,86.63
2019-04-04T08:53:49.371Z,85.96
2019-04-04T08:56:16.412Z,86.22
2019-04-04T08:58:43.468Z,85.40
2019-04-04T09:01:10.507Z,85.60
2019-04-04T09:03:37.570Z,85.05
2019-04-04T09:06:04.598Z,85.06
2019-04-04T09:08:31.648Z,84.42
2019-04-04T09:10:58.684Z,83.78
2019-04-04T09:13:25.734Z,84.20
2019-04-04T09:15:52.763Z,84.44
2019-04-04T09:18:19.810Z,84.58
2019-04-04T09:20:47.106Z,84.16
2019-04-04T09:23:15.353Z,84.21
2019-04-04T09:25:42.656Z,83.84
2019-04-04T09:28:09.704Z,84.05
2019-04-04T09:30:36.736Z,83.57
2019-04-04T09:33:04.055Z,83.25
2019-04-04T09:35:31.336Z,83.04
2019-04-04T09:37:58.391Z,82.83
2019-04-04T09:40:25.419Z,82.37
2019-04-04T09:42:52.468Z,82.69
2019-04-04T09:45:19.509Z,83.04
2019-04-04T09:47:46.558Z,81.89
2019-04-04T09:50:13.588Z,81.20
2019-04-04T09:52:40.633Z,81.15
2019-04-04T09:55:08.028Z,81.30
2019-04-04T09:57:35.078Z,81.80
2019-04-04T10:00:02.541Z,82.17
2019-04-04T10:02:31.524Z,81.01
2019-04-04T10:04:58.561Z,80.98
2019-04-04T10:07:26.884Z,80.97
2019-04-04T10:09:54.230Z,81.97
2019-04-04T10:12:21.559Z,81.20
2019-04-04T10:14:48.916Z,81.37
2019-04-04T10:17:16.272Z,81.20
2019-04-04T10:19:43.309Z,81.55
2019-04-04T10:22:10.345Z,81.44
2019-04-04T10:24:37.408Z,82.44
2019-04-04T10:27:04.434Z,82.35
2019-04-04T10:29:31.484Z,82.31
2019-04-04T10:31:58.510Z,82.50
2019-04-04T10:34:28.276Z,82.60
2019-04-04T10:36:54.281Z,83.16
2019-04-04T10:39:28.719Z,83.07
2019-04-04T10:41:50.380Z,83.33
2019-04-04T10:44:17.424Z,83.09
2019-04-04T10:46:44.455Z,83.36
2019-04-04T10:49:11.507Z,83.07
2019-04-04T10:51:38.832Z,82.96
2019-04-04T10:54:05.883Z,82.73
2019-04-04T10:56:36.393Z,82.13
2019-04-04T10:59:03.351Z,82.17
2019-04-04T11:01:30.258Z,81.19
2019-04-04T11:03:57.288Z,80.64
2019-04-04T11:06:24.606Z,81.96
2019-04-04T11:08:51.984Z,81.86
2019-04-04T11:11:19.009Z,82.59
2019-04-04T11:13:46.063Z,82.68
2019-04-04T11:16:13.471Z,82.83
2019-04-04T11:18:40.457Z,83.11
2019-04-04T11:21:07.488Z,82.24
2019-04-04T11:23:34.776Z,81.53
2019-04-04T11:26:01.809Z,82.38
2019-04-04T11:28:28.859Z,82.62
2019-04-04T11:30:56.230Z,81.43
2019-04-04T11:33:23.273Z,81.94
2019-04-04T11:36:01.673Z,81.37
2019-04-04T11:38:29.040Z,81.67
2019-04-04T11:40:56.408Z,81.77
2019-04-04T11:43:23.451Z,81.94
2019-04-04T11:45:50.488Z,82.43
2019-04-04T11:48:17.553Z,82.49
2019-04-04T11:50:44.593Z,82.41
2019-04-04T11:53:11.641Z,82.38
2019-04-04T11:55:38.801Z,82.45
2019-04-04T11:58:06.225Z,82.14
2019-04-04T12:00:33.282Z,82.10
2019-04-04T12:03:00.734Z,82.64
2019-04-04T12:05:28.089Z,81.98
2019-04-04T12:07:55.127Z,82.16
2019-04-04T12:10:22.516Z,82.60
2019-04-04T12:12:49.849Z,82.16
2019-04-04T12:15:20.935Z,81.93
2019-04-04T12:17:47.973Z,81.27
2019-04-04T12:20:15.313Z,81.35
2019-04-04T12:22:42.356Z,80.88
2019-04-04T12:25:09.409Z,81.06
2019-04-04T12:27:36.746Z,80.53
2019-04-04T12:30:04.099Z,80.73
2019-04-04T12:32:31.472Z,81.18
2019-04-04T12:34:58.525Z,81.80
2019-04-04T12:37:25.567Z,82.12
2019-04-04T12:39:52.617Z,82.54
2019-04-04T12:42:20.147Z,83.26
2019-04-04T12:44:47.180Z,83.85
2019-04-04T12:47:14.214Z,84.17
2019-04-04T12:49:41.273Z,84.02
2019-04-04T12:52:08.302Z,84.09
2019-04-04T12:54:35.710Z,84.04
2019-04-04T12:57:03.057Z,84.17
2019-04-04T12:59:30.418Z,84.19
2019-04-04T13:01:57.773Z,84.44
2019-04-04T13:04:31.610Z,84.55
2019-04-04T13:06:53.814Z,84.70
2019-04-04T13:09:21.166Z,85.27
2019-04-04T13:11:48.201Z,85.60
2019-04-04T13:14:15.567Z,85.77
2019-04-04T13:16:42.606Z,85.76
2019-04-04T13:21:48.923Z,86.08
2019-04-04T13:24:15.979Z,86.30
2019-04-04T13:26:43.019Z,86.40
2019-04-04T13:29:10.346Z,86.59
2019-04-04T13:31:37.625Z,86.39
2019-04-04T13:34:04.921Z,86.66
2019-04-04T13:36:32.316Z,87.06
2019-04-04T13:38:59.363Z,86.96
2019-04-04T13:41:26.398Z,86.68
2019-04-04T13:43:54.314Z,86.79
2019-04-04T13:46:25.878Z,86.77
2019-04-04T13:48:51.848Z,87.02
2019-04-04T13:51:21.106Z,86.75
2019-04-04T13:53:47.629Z,86.83
2019-04-04T13:56:14.955Z,87.14
2019-04-04T13:58:41.987Z,87.05
2019-04-04T14:01:09.037Z,86.18
2019-04-04T14:03:36.069Z,86.82
2019-04-04T14:06:03.120Z,86.51
2019-04-04T14:08:30.154Z,86.96
2019-04-04T14:10:58.556Z,86.62
2019-04-04T14:13:26.354Z,86.29
2019-04-04T14:15:53.801Z,86.09
2019-04-04T14:18:20.835Z,85.95
2019-04-04T14:20:48.188Z,86.21
2019-04-04T14:23:15.232Z,86.36
2019-04-04T14:25:42.592Z,86.26
2019-04-04T14:28:09.625Z,86.24
2019-04-04T14:30:36.987Z,86.63
2019-04-04T14:33:04.029Z,86.97
2019-04-04T14:35:31.074Z,86.98
2019-04-04T14:37:58.113Z,87.00
2019-04-04T14:40:25.152Z,87.10
2019-04-04T14:42:52.557Z,87.22
2019-04-04T14:45:19.607Z,87.25
2019-04-04T14:47:48.164Z,87.40
2019-04-04T14:52:49.254Z,87.36
2019-04-04T14:55:17.988Z,87.55
2019-04-04T14:57:50.882Z,87.32
2019-04-04T15:08:09.043Z,87.94
2019-04-04T15:13:15.917Z,87.83
2019-04-04T15:15:43.086Z,87.83
2019-04-04T15:18:11.524Z,88.05
2019-04-04T15:20:40.002Z,87.76
2019-04-04T15:23:07.190Z,87.97
2019-04-04T15:25:34.457Z,88.14
2019-04-04T15:28:04.653Z,88.23
2019-04-04T15:33:06.455Z,88.44
2019-04-04T15:35:34.626Z,88.59
2019-04-04T15:38:03.066Z,88.39
2019-04-04T15:40:30.140Z,88.66
2019-04-04T15:45:44.092Z,88.09
2019-04-04T15:48:12.654Z,88.19
2019-04-04T15:53:12.436Z,87.83
2019-04-04T15:55:39.723Z,88.15
2019-04-04T15:58:13.881Z,87.91
2019-04-04T16:00:41.209Z,87.97
2019-04-04T16:03:15.858Z,87.62
2019-04-04T16:05:50.154Z,87.60
2019-04-04T16:11:02.828Z,88.00
2019-04-04T16:13:43.989Z,87.52
2019-04-04T16:16:16.175Z,87.36
2019-04-04T16:18:48.446Z,87.65
2019-04-04T16:21:15.697Z,87.54
2019-04-04T16:23:49.585Z,88.02
2019-04-04T16:26:20.912Z,87.92
2019-04-04T16:28:52.264Z,88.17
2019-04-04T16:36:31.590Z,88.40
2019-04-04T16:42:02.022Z,88.82
2019-04-04T16:44:33.458Z,88.86
2019-04-04T16:47:01.644Z,88.91
2019-04-04T16:49:38.268Z,89.17
2019-04-04T16:52:09.930Z,89.15
2019-04-04T16:54:44.325Z,89.00
2019-04-04T16:57:12.573Z,88.89
2019-04-04T16:59:42.029Z,88.84
2019-04-04T17:02:12.863Z,89.28
2019-04-04T17:04:53.461Z,89.03
2019-04-04T17:07:20.806Z,88.89
2019-04-04T17:09:47.964Z,89.02
2019-04-04T17:14:48.023Z,89.40
2019-04-04T17:17:19.529Z,89.57
2019-04-04T17:19:48.755Z,89.71
2019-04-04T17:25:04.172Z,89.65
2019-04-04T17:27:37.321Z,89.62
2019-04-04T17:30:06.091Z,89.86
2019-04-04T17:35:09.923Z,89.98
2019-04-04T17:37:41.390Z,89.95
2019-04-04T17:42:57.721Z,90.07
2019-04-04T17:48:12.878Z,90.24
2019-04-04T17:50:40.170Z,90.06
2019-04-04T17:53:07.747Z,90.06
2019-04-04T17:55:35.914Z,90.08
2019-04-04T17:58:03.447Z,90.13
2019-04-04T18:00:30.558Z,90.13
2019-04-04T18:02:57.611Z,90.02
2019-04-04T18:05:24.656Z,90.02
2019-04-04T18:07:51.695Z,89.91
2019-04-04T18:10:18.754Z,89.85
2019-04-04T18:12:45.800Z,89.84
2019-04-04T18:15:12.852Z,89.67
2019-04-04T18:17:39.898Z,89.75
2019-04-04T18:20:07.270Z,89.77
2019-04-04T18:22:35.377Z,89.75
2019-04-04T18:25:02.513Z,89.53
2019-04-04T18:27:29.552Z,89.64
2019-04-04T18:29:56.610Z,89.52
2019-04-04T18:32:23.653Z,89.57
2019-04-04T18:34:52.258Z,89.49
2019-04-04T18:37:19.609Z,89.66
2019-04-04T18:39:46.645Z,89.63
2019-04-04T18:42:13.686Z,89.37
2019-04-04T18:44:40.735Z,89.37
2019-04-04T18:47:07.775Z,89.22
2019-04-04T18:49:35.124Z,89.22
2019-04-04T18:52:02.158Z,89.13
2019-04-04T18:54:29.214Z,89.00
2019-04-04T18:56:56.245Z,89.11
2019-04-04T18:59:23.300Z,88.78
2019-04-04T19:01:50.358Z,88.76
2019-04-04T19:04:17.464Z,88.67
2019-04-04T19:06:44.761Z,89.02
2019-04-04T19:09:15.109Z,89.26
2019-04-04T19:11:41.217Z,89.24
2019-04-04T19:14:12.775Z,89.08
2019-04-04T19:16:39.864Z,89.22
2019-04-04T19:19:06.918Z,89.24
2019-04-04T19:21:33.955Z,89.32
2019-04-04T19:24:01.267Z,89.25
2019-04-04T19:26:28.301Z,89.38
2019-04-04T19:28:55.369Z,89.43
2019-04-04T19:31:22.643Z,89.17
2019-04-04T19:33:50.107Z,89.28
2019-04-04T19:36:17.236Z,89.41
2019-04-04T19:38:44.338Z,89.53
2019-04-04T19:41:11.391Z,89.60
2019-04-04T19:43:38.499Z,89.55
2019-04-04T19:46:05.622Z,89.51
2019-04-04T19:48:32.693Z,89.50
2019-04-04T19:51:00.168Z,89.69
2019-04-04T19:55:56.574Z,90.08
2019-04-04T19:58:23.694Z,90.03
2019-04-04T20:00:50.749Z,90.01
2019-04-04T20:03:18.142Z,90.03
2019-04-04T20:05:45.334Z,90.00
2019-04-04T20:08:12.374Z,89.99
2019-04-04T20:10:39.801Z,90.13
2019-04-04T20:13:06.910Z,90.11
2019-04-04T20:15:33.958Z,90.13
2019-04-04T20:18:00.997Z,90.04
2019-04-04T20:20:28.113Z,90.12
2019-04-04T20:22:56.052Z,90.10
2019-04-04T20:25:23.103Z,90.08
2019-04-04T20:27:54.839Z,89.99
2019-04-04T20:30:18.909Z,89.89
2019-04-04T20:32:45.949Z,89.97
2019-04-04T20:35:13.356Z,90.02
2019-04-04T20:37:40.406Z,90.04
2019-04-04T20:40:07.459Z,90.10
2019-04-04T20:42:34.994Z,90.08
2019-04-04T20:45:02.040Z,90.12
2019-04-04T20:47:29.090Z,90.11
2019-04-04T20:50:15.494Z,90.08
2019-04-04T20:52:42.717Z,90.00
2019-04-04T20:55:09.751Z,89.93
2019-04-04T20:57:37.151Z,90.00
2019-04-04T21:00:06.650Z,90.06
2019-04-04T21:02:34.184Z,90.12
2019-04-04T21:05:01.169Z,90.14
2019-04-04T21:07:28.483Z,90.07
2019-04-04T21:09:55.515Z,90.09
2019-04-04T21:12:22.565Z,90.07
2019-04-04T21:14:49.965Z,89.98
2019-04-04T21:17:17.017Z,89.95
2019-04-04T21:19:44.373Z,89.95
2019-04-04T21:22:11.431Z,89.94
2019-04-04T21:24:38.472Z,90.00
2019-04-04T21:27:06.944Z,89.98
2019-04-04T21:29:34.108Z,89.97
2019-04-04T21:32:01.170Z,89.84
2019-04-04T21:34:28.525Z,90.07
2019-04-04T21:36:55.852Z,89.98
2019-04-04T21:39:23.131Z,90.00
2019-04-04T21:41:50.187Z,90.13
2019-04-04T21:44:17.509Z,89.93
2019-04-04T21:46:45.821Z,90.08
2019-04-04T21:49:14.003Z,90.15
2019-04-04T21:51:43.214Z,90.19
2019-04-04T21:54:10.270Z,90.21
2019-04-04T21:56:37.345Z,90.16
2019-04-04T21:59:04.392Z,89.96
2019-04-04T22:01:31.759Z,90.08
2019-04-04T22:03:58.867Z,90.14
2019-04-04T22:06:25.918Z,89.96
2019-04-04T22:08:52.959Z,90.07
2019-04-04T22:11:21.082Z,90.11
2019-04-04T22:13:49.197Z,90.03
2019-04-04T22:16:17.657Z,90.05
2019-04-04T22:18:45.003Z,90.01
2019-04-04T22:21:12.039Z,90.00
2019-04-04T22:23:39.096Z,89.97
2019-04-04T22:26:06.434Z,89.87
2019-04-04T22:28:33.489Z,89.88
2019-04-04T22:31:00.558Z,89.98
2019-04-04T22:33:27.587Z,90.00
2019-04-04T22:35:54.708Z,89.91
2019-04-04T22:38:21.760Z,89.73
2019-04-04T22:40:49.137Z,89.69
2019-04-04T22:43:16.187Z,89.78
2019-04-04T22:45:43.229Z,89.79
2019-04-04T22:48:10.283Z,89.56
2019-04-04T22:50:37.323Z,89.58
2019-04-04T22:53:04.373Z,89.59
2019-04-04T22:55:31.727Z,89.69
2019-04-04T22:57:59.090Z,89.66
2019-04-04T23:00:26.443Z,89.73
2019-04-04T23:02:53.501Z,89.70
2019-04-04T23:05:21.606Z,89.77
2019-04-04T23:10:38.546Z,89.80
2019-04-04T23:13:05.948Z,89.77
2019-04-04T23:15:33.306Z,89.86
2019-04-04T23:18:00.360Z,89.87
2019-04-04T23:20:27.404Z,89.70
2019-04-04T23:22:54.460Z,89.88
2019-04-04T23:25:21.499Z,89.71
2019-04-04T23:27:48.845Z,89.64
2019-04-04T23:30:15.886Z,89.70
2019-04-04T23:32:43.191Z,89.69
2019-04-04T23:35:10.231Z,89.69
2019-04-04T23:37:37.569Z,89.68
2019-04-04T23:40:04.606Z,89.69
2019-04-04T23:42:31.734Z,89.66
2019-04-04T23:45:01.110Z,89.63
2019-04-04T23:47:27.605Z,89.56
2019-04-04T23:49:54.944Z,89.55
2019-04-04T23:52:22.298Z,89.60
2019-04-04T23:54:49.650Z,89.54
2019-04-04T23:57:16.688Z,89.59
2019-04-04T23:59:43.745Z,89.59
